sensor_id;sensor_type;location;lat;lon;timestamp;temperature;humidity
19516;DHT22;9901;47.448;7.692;2023-06-04T00:02:04;18.00;99.90
19516;DHT22;9901;47.448;7.692;2023-06-04T00:04:30;18.00;99.90
19516;DHT22;9901;47.448;7.692;2023-06-04T00:09:22;17.90;99.90
19516;DHT22;9901;47.448;7.692;2023-06-04T00:11:48;17.90;99.90
19516;DHT22;9901;47.448;7.692;2023-06-04T00:14:16;17.90;99.90
19516;DHT22;9901;47.448;7.692;2023-06-04T00:16:41;17.80;99.90
19516;DHT22;9901;47.448;7.692;2023-06-04T00:19:08;17.80;99.90
19516;DHT22;9901;47.448;7.692;2023-06-04T00:21:34;17.70;99.90
19516;DHT22;9901;47.448;7.692;2023-06-04T00:24:01;17.60;99.90
19516;DHT22;9901;47.448;7.692;2023-06-04T00:26:27;17.60;99.90
19516;DHT22;9901;47.448;7.692;2023-06-04T00:28:56;17.50;99.90
19516;DHT22;9901;47.448;7.692;2023-06-04T00:31:22;17.50;99.90
19516;DHT22;9901;47.448;7.692;2023-06-04T00:33:48;17.50;99.90
19516;DHT22;9901;47.448;7.692;2023-06-04T00:36:13;17.40;99.90
19516;DHT22;9901;47.448;7.692;2023-06-04T00:38:39;17.40;99.90
19516;DHT22;9901;47.448;7.692;2023-06-04T00:41:05;17.30;99.90
19516;DHT22;9901;47.448;7.692;2023-06-04T00:43:30;17.20;99.90
19516;DHT22;9901;47.448;7.692;2023-06-04T00:45:58;17.30;99.90
19516;DHT22;9901;47.448;7.692;2023-06-04T00:48:25;17.20;99.90
19516;DHT22;9901;47.448;7.692;2023-06-04T00:50:53;17.20;99.90
19516;DHT22;9901;47.448;7.692;2023-06-04T00:53:20;17.10;99.90
19516;DHT22;9901;47.448;7.692;2023-06-04T00:55:46;17.20;99.90
19516;DHT22;9901;47.448;7.692;2023-06-04T00:58:12;17.20;99.90
19516;DHT22;9901;47.448;7.692;2023-06-04T01:00:38;17.30;99.90
19516;DHT22;9901;47.448;7.692;2023-06-04T01:03:08;17.10;99.90
19516;DHT22;9901;47.448;7.692;2023-06-04T01:05:55;17.10;99.90
19516;DHT22;9901;47.448;7.692;2023-06-04T01:08:23;17.10;99.90
19516;DHT22;9901;47.448;7.692;2023-06-04T01:10:57;17.00;99.90
19516;DHT22;9901;47.448;7.692;2023-06-04T01:13:24;17.10;99.90
19516;DHT22;9901;47.448;7.692;2023-06-04T01:15:50;17.10;99.90
19516;DHT22;9901;47.448;7.692;2023-06-04T01:18:19;17.00;99.90
19516;DHT22;9901;47.448;7.692;2023-06-04T01:20:57;17.00;99.90
19516;DHT22;9901;47.448;7.692;2023-06-04T01:23:37;17.00;99.90
19516;DHT22;9901;47.448;7.692;2023-06-04T01:26:09;16.80;99.90
19516;DHT22;9901;47.448;7.692;2023-06-04T01:28:36;16.80;99.90
19516;DHT22;9901;47.448;7.692;2023-06-04T01:31:03;16.80;99.90
19516;DHT22;9901;47.448;7.692;2023-06-04T01:33:29;16.70;99.90
19516;DHT22;9901;47.448;7.692;2023-06-04T01:35:55;16.70;99.90
19516;DHT22;9901;47.448;7.692;2023-06-04T01:38:21;16.70;99.90
19516;DHT22;9901;47.448;7.692;2023-06-04T01:40:47;16.60;99.90
19516;DHT22;9901;47.448;7.692;2023-06-04T01:43:12;16.60;99.90
19516;DHT22;9901;47.448;7.692;2023-06-04T01:45:38;16.50;99.90
19516;DHT22;9901;47.448;7.692;2023-06-04T01:48:05;16.50;99.90
19516;DHT22;9901;47.448;7.692;2023-06-04T01:50:31;16.50;99.90
19516;DHT22;9901;47.448;7.692;2023-06-04T01:52:57;16.40;99.90
19516;DHT22;9901;47.448;7.692;2023-06-04T01:55:23;16.40;99.90
19516;DHT22;9901;47.448;7.692;2023-06-04T01:57:50;16.50;99.90
19516;DHT22;9901;47.448;7.692;2023-06-04T02:00:16;16.60;99.90
19516;DHT22;9901;47.448;7.692;2023-06-04T02:02:46;16.50;99.90
19516;DHT22;9901;47.448;7.692;2023-06-04T02:05:13;16.60;99.90
19516;DHT22;9901;47.448;7.692;2023-06-04T02:07:41;16.60;99.90
19516;DHT22;9901;47.448;7.692;2023-06-04T02:10:12;16.60;99.90
19516;DHT22;9901;47.448;7.692;2023-06-04T02:12:39;16.70;99.90
19516;DHT22;9901;47.448;7.692;2023-06-04T02:15:11;16.50;99.90
19516;DHT22;9901;47.448;7.692;2023-06-04T02:17:36;16.60;99.90
19516;DHT22;9901;47.448;7.692;2023-06-04T02:20:05;16.50;99.90
19516;DHT22;9901;47.448;7.692;2023-06-04T02:22:31;16.50;99.90
19516;DHT22;9901;47.448;7.692;2023-06-04T02:24:57;16.40;99.90
19516;DHT22;9901;47.448;7.692;2023-06-04T02:27:23;16.30;99.90
19516;DHT22;9901;47.448;7.692;2023-06-04T02:29:48;16.40;99.90
19516;DHT22;9901;47.448;7.692;2023-06-04T02:32:15;16.30;99.90
19516;DHT22;9901;47.448;7.692;2023-06-04T02:34:40;16.30;99.90
19516;DHT22;9901;47.448;7.692;2023-06-04T02:37:06;16.40;99.90
19516;DHT22;9901;47.448;7.692;2023-06-04T02:39:31;16.20;99.90
19516;DHT22;9901;47.448;7.692;2023-06-04T02:41:57;16.20;99.90
19516;DHT22;9901;47.448;7.692;2023-06-04T02:44:23;16.20;99.90
19516;DHT22;9901;47.448;7.692;2023-06-04T02:46:48;16.20;99.90
19516;DHT22;9901;47.448;7.692;2023-06-04T02:49:15;16.10;99.90
19516;DHT22;9901;47.448;7.692;2023-06-04T02:51:42;16.00;99.90
19516;DHT22;9901;47.448;7.692;2023-06-04T02:54:08;16.10;99.90
19516;DHT22;9901;47.448;7.692;2023-06-04T02:56:35;16.00;99.90
19516;DHT22;9901;47.448;7.692;2023-06-04T02:59:01;15.80;99.90
19516;DHT22;9901;47.448;7.692;2023-06-04T03:01:27;15.80;99.90
19516;DHT22;9901;47.448;7.692;2023-06-04T03:03:54;15.80;99.90
19516;DHT22;9901;47.448;7.692;2023-06-04T03:06:21;15.70;99.90
19516;DHT22;9901;47.448;7.692;2023-06-04T03:08:48;15.60;99.90
19516;DHT22;9901;47.448;7.692;2023-06-04T03:11:14;15.60;99.90
19516;DHT22;9901;47.448;7.692;2023-06-04T03:13:42;15.60;99.90
19516;DHT22;9901;47.448;7.692;2023-06-04T03:16:08;15.60;99.90
19516;DHT22;9901;47.448;7.692;2023-06-04T03:18:39;15.60;99.90
19516;DHT22;9901;47.448;7.692;2023-06-04T03:21:05;15.60;99.90
19516;DHT22;9901;47.448;7.692;2023-06-04T03:23:31;15.50;99.90
19516;DHT22;9901;47.448;7.692;2023-06-04T03:25:57;15.50;99.90
19516;DHT22;9901;47.448;7.692;2023-06-04T03:28:26;15.40;99.90
19516;DHT22;9901;47.448;7.692;2023-06-04T03:30:51;15.40;99.90
19516;DHT22;9901;47.448;7.692;2023-06-04T03:33:17;15.30;99.90
19516;DHT22;9901;47.448;7.692;2023-06-04T03:35:45;15.30;99.90
19516;DHT22;9901;47.448;7.692;2023-06-04T03:38:14;15.30;99.90
19516;DHT22;9901;47.448;7.692;2023-06-04T03:40:40;15.30;99.90
19516;DHT22;9901;47.448;7.692;2023-06-04T03:43:06;15.30;99.90
19516;DHT22;9901;47.448;7.692;2023-06-04T03:45:32;15.30;99.90
19516;DHT22;9901;47.448;7.692;2023-06-04T03:47:58;15.30;99.90
19516;DHT22;9901;47.448;7.692;2023-06-04T03:50:23;15.30;99.90
19516;DHT22;9901;47.448;7.692;2023-06-04T03:52:51;15.30;99.90
19516;DHT22;9901;47.448;7.692;2023-06-04T03:55:17;15.30;99.90
19516;DHT22;9901;47.448;7.692;2023-06-04T03:57:43;15.30;99.90
19516;DHT22;9901;47.448;7.692;2023-06-04T04:00:10;15.30;99.90
19516;DHT22;9901;47.448;7.692;2023-06-04T04:02:42;15.40;99.90
19516;DHT22;9901;47.448;7.692;2023-06-04T04:05:08;15.40;99.90
19516;DHT22;9901;47.448;7.692;2023-06-04T04:07:35;15.30;99.90
19516;DHT22;9901;47.448;7.692;2023-06-04T04:10:04;15.10;99.90
19516;DHT22;9901;47.448;7.692;2023-06-04T04:12:31;15.30;99.90
19516;DHT22;9901;47.448;7.692;2023-06-04T04:14:56;15.20;99.90
19516;DHT22;9901;47.448;7.692;2023-06-04T04:17:22;15.50;99.90
19516;DHT22;9901;47.448;7.692;2023-06-04T04:19:48;15.50;99.90
19516;DHT22;9901;47.448;7.692;2023-06-04T04:22:13;15.40;99.90
19516;DHT22;9901;47.448;7.692;2023-06-04T04:24:43;15.30;99.90
19516;DHT22;9901;47.448;7.692;2023-06-04T04:27:10;15.40;99.90
19516;DHT22;9901;47.448;7.692;2023-06-04T04:29:38;15.40;99.90
19516;DHT22;9901;47.448;7.692;2023-06-04T04:32:07;15.40;99.90
19516;DHT22;9901;47.448;7.692;2023-06-04T04:34:37;15.40;99.90
19516;DHT22;9901;47.448;7.692;2023-06-04T04:37:04;15.40;99.90
19516;DHT22;9901;47.448;7.692;2023-06-04T04:39:34;15.40;99.90
19516;DHT22;9901;47.448;7.692;2023-06-04T04:42:01;15.50;99.90
19516;DHT22;9901;47.448;7.692;2023-06-04T04:44:27;15.40;99.90
19516;DHT22;9901;47.448;7.692;2023-06-04T04:46:53;15.40;99.90
19516;DHT22;9901;47.448;7.692;2023-06-04T04:49:18;15.40;99.90
19516;DHT22;9901;47.448;7.692;2023-06-04T04:51:44;15.40;99.90
19516;DHT22;9901;47.448;7.692;2023-06-04T04:54:09;15.40;99.90
19516;DHT22;9901;47.448;7.692;2023-06-04T04:56:35;15.40;99.90
19516;DHT22;9901;47.448;7.692;2023-06-04T04:59:01;15.40;99.90
19516;DHT22;9901;47.448;7.692;2023-06-04T05:01:27;15.40;99.90
19516;DHT22;9901;47.448;7.692;2023-06-04T05:03:53;15.30;99.90
19516;DHT22;9901;47.448;7.692;2023-06-04T05:06:19;15.40;99.90
19516;DHT22;9901;47.448;7.692;2023-06-04T05:08:45;15.40;99.90
19516;DHT22;9901;47.448;7.692;2023-06-04T05:11:10;15.40;99.90
19516;DHT22;9901;47.448;7.692;2023-06-04T05:13:36;15.40;99.90
19516;DHT22;9901;47.448;7.692;2023-06-04T05:16:02;15.50;99.90
19516;DHT22;9901;47.448;7.692;2023-06-04T05:21:06;15.60;99.90
19516;DHT22;9901;47.448;7.692;2023-06-04T05:23:33;15.70;99.90
19516;DHT22;9901;47.448;7.692;2023-06-04T05:26:00;15.70;99.90
19516;DHT22;9901;47.448;7.692;2023-06-04T05:28:30;15.80;99.90
19516;DHT22;9901;47.448;7.692;2023-06-04T05:30:58;15.90;99.90
19516;DHT22;9901;47.448;7.692;2023-06-04T05:33:27;16.10;99.90
19516;DHT22;9901;47.448;7.692;2023-06-04T05:35:53;16.20;99.90
19516;DHT22;9901;47.448;7.692;2023-06-04T05:38:23;16.20;99.90
19516;DHT22;9901;47.448;7.692;2023-06-04T05:40:51;16.60;99.90
19516;DHT22;9901;47.448;7.692;2023-06-04T05:43:21;16.70;99.90
19516;DHT22;9901;47.448;7.692;2023-06-04T05:45:47;16.60;99.90
19516;DHT22;9901;47.448;7.692;2023-06-04T05:48:12;16.70;99.90
19516;DHT22;9901;47.448;7.692;2023-06-04T05:50:38;16.70;99.90
19516;DHT22;9901;47.448;7.692;2023-06-04T05:53:03;16.80;99.90
19516;DHT22;9901;47.448;7.692;2023-06-04T05:55:29;16.90;99.90
19516;DHT22;9901;47.448;7.692;2023-06-04T05:57:55;16.90;99.90
19516;DHT22;9901;47.448;7.692;2023-06-04T06:00:21;16.90;99.90
19516;DHT22;9901;47.448;7.692;2023-06-04T06:02:50;17.10;99.90
19516;DHT22;9901;47.448;7.692;2023-06-04T06:05:18;17.00;99.90
19516;DHT22;9901;47.448;7.692;2023-06-04T06:07:45;17.10;99.90
19516;DHT22;9901;47.448;7.692;2023-06-04T06:10:11;17.10;99.90
19516;DHT22;9901;47.448;7.692;2023-06-04T06:12:37;17.10;99.90
19516;DHT22;9901;47.448;7.692;2023-06-04T06:15:02;17.10;99.90
19516;DHT22;9901;47.448;7.692;2023-06-04T06:17:29;17.20;99.90
19516;DHT22;9901;47.448;7.692;2023-06-04T06:19:55;17.30;99.90
19516;DHT22;9901;47.448;7.692;2023-06-04T06:22:22;17.40;99.90
19516;DHT22;9901;47.448;7.692;2023-06-04T06:24:47;17.40;99.90
19516;DHT22;9901;47.448;7.692;2023-06-04T06:27:16;17.50;99.90
19516;DHT22;9901;47.448;7.692;2023-06-04T06:29:42;17.70;99.90
19516;DHT22;9901;47.448;7.692;2023-06-04T06:32:08;17.90;99.90
19516;DHT22;9901;47.448;7.692;2023-06-04T06:34:34;17.90;99.90
19516;DHT22;9901;47.448;7.692;2023-06-04T06:37:00;18.00;99.90
19516;DHT22;9901;47.448;7.692;2023-06-04T06:39:25;18.10;99.90
19516;DHT22;9901;47.448;7.692;2023-06-04T06:41:51;18.10;99.90
19516;DHT22;9901;47.448;7.692;2023-06-04T06:44:17;18.20;99.90
19516;DHT22;9901;47.448;7.692;2023-06-04T06:46:44;18.30;99.90
19516;DHT22;9901;47.448;7.692;2023-06-04T06:49:10;18.40;99.90
19516;DHT22;9901;47.448;7.692;2023-06-04T06:51:35;18.50;99.90
19516;DHT22;9901;47.448;7.692;2023-06-04T06:54:01;18.70;99.90
19516;DHT22;9901;47.448;7.692;2023-06-04T06:56:26;18.70;99.90
19516;DHT22;9901;47.448;7.692;2023-06-04T06:58:52;18.80;99.90
19516;DHT22;9901;47.448;7.692;2023-06-04T07:01:18;18.90;99.90
19516;DHT22;9901;47.448;7.692;2023-06-04T07:03:43;19.10;99.90
19516;DHT22;9901;47.448;7.692;2023-06-04T07:06:09;19.10;99.90
19516;DHT22;9901;47.448;7.692;2023-06-04T07:08:35;19.20;99.90
19516;DHT22;9901;47.448;7.692;2023-06-04T07:11:02;19.20;99.90
19516;DHT22;9901;47.448;7.692;2023-06-04T07:13:28;19.20;99.90
19516;DHT22;9901;47.448;7.692;2023-06-04T07:15:54;19.40;99.90
19516;DHT22;9901;47.448;7.692;2023-06-04T07:18:20;19.40;99.90
19516;DHT22;9901;47.448;7.692;2023-06-04T07:20:45;19.50;99.90
19516;DHT22;9901;47.448;7.692;2023-06-04T07:23:11;19.60;99.90
19516;DHT22;9901;47.448;7.692;2023-06-04T07:25:36;19.70;99.90
19516;DHT22;9901;47.448;7.692;2023-06-04T07:28:05;19.80;99.90
19516;DHT22;9901;47.448;7.692;2023-06-04T07:30:31;19.90;99.90
19516;DHT22;9901;47.448;7.692;2023-06-04T07:32:59;19.90;99.90
19516;DHT22;9901;47.448;7.692;2023-06-04T07:35:25;20.00;99.90
19516;DHT22;9901;47.448;7.692;2023-06-04T07:37:51;20.20;99.90
19516;DHT22;9901;47.448;7.692;2023-06-04T07:40:17;20.20;99.90
19516;DHT22;9901;47.448;7.692;2023-06-04T07:42:44;20.30;99.90
19516;DHT22;9901;47.448;7.692;2023-06-04T07:45:10;20.30;99.90
19516;DHT22;9901;47.448;7.692;2023-06-04T07:47:36;20.40;99.90
19516;DHT22;9901;47.448;7.692;2023-06-04T07:50:03;20.50;99.90
19516;DHT22;9901;47.448;7.692;2023-06-04T07:52:28;20.60;99.90
19516;DHT22;9901;47.448;7.692;2023-06-04T07:54:54;20.60;99.90
19516;DHT22;9901;47.448;7.692;2023-06-04T07:57:19;20.70;99.90
19516;DHT22;9901;47.448;7.692;2023-06-04T07:59:45;20.70;99.90
19516;DHT22;9901;47.448;7.692;2023-06-04T08:02:10;20.80;99.90
19516;DHT22;9901;47.448;7.692;2023-06-04T08:04:36;21.00;99.90
19516;DHT22;9901;47.448;7.692;2023-06-04T08:07:01;21.10;99.90
19516;DHT22;9901;47.448;7.692;2023-06-04T08:09:27;21.20;99.90
19516;DHT22;9901;47.448;7.692;2023-06-04T08:11:53;21.30;99.90
19516;DHT22;9901;47.448;7.692;2023-06-04T08:16:47;21.30;99.90
19516;DHT22;9901;47.448;7.692;2023-06-04T08:19:12;21.40;99.90
19516;DHT22;9901;47.448;7.692;2023-06-04T08:21:39;21.40;99.90
19516;DHT22;9901;47.448;7.692;2023-06-04T08:24:08;21.60;99.90
19516;DHT22;9901;47.448;7.692;2023-06-04T08:26:34;21.70;99.90
19516;DHT22;9901;47.448;7.692;2023-06-04T08:29:02;21.70;99.90
19516;DHT22;9901;47.448;7.692;2023-06-04T08:31:29;21.70;99.90
19516;DHT22;9901;47.448;7.692;2023-06-04T08:33:55;21.90;99.90
19516;DHT22;9901;47.448;7.692;2023-06-04T08:36:20;22.00;99.90
19516;DHT22;9901;47.448;7.692;2023-06-04T08:38:46;21.90;99.90
19516;DHT22;9901;47.448;7.692;2023-06-04T08:41:19;22.00;99.90
19516;DHT22;9901;47.448;7.692;2023-06-04T08:43:45;22.00;99.90
19516;DHT22;9901;47.448;7.692;2023-06-04T08:46:12;22.00;99.90
19516;DHT22;9901;47.448;7.692;2023-06-04T08:48:38;22.00;99.90
19516;DHT22;9901;47.448;7.692;2023-06-04T08:51:05;22.20;99.90
19516;DHT22;9901;47.448;7.692;2023-06-04T08:53:34;22.30;99.90
19516;DHT22;9901;47.448;7.692;2023-06-04T08:56:02;22.40;99.90
19516;DHT22;9901;47.448;7.692;2023-06-04T08:58:31;22.50;99.90
19516;DHT22;9901;47.448;7.692;2023-06-04T09:00:56;22.50;99.90
19516;DHT22;9901;47.448;7.692;2023-06-04T09:03:22;22.70;99.90
19516;DHT22;9901;47.448;7.692;2023-06-04T09:05:50;22.80;99.90
19516;DHT22;9901;47.448;7.692;2023-06-04T09:08:17;23.00;99.90
19516;DHT22;9901;47.448;7.692;2023-06-04T09:10:45;23.10;99.90
19516;DHT22;9901;47.448;7.692;2023-06-04T09:13:15;23.30;99.90
19516;DHT22;9901;47.448;7.692;2023-06-04T09:15:42;23.30;99.90
19516;DHT22;9901;47.448;7.692;2023-06-04T09:18:08;23.50;99.90
19516;DHT22;9901;47.448;7.692;2023-06-04T09:20:33;23.60;99.90
19516;DHT22;9901;47.448;7.692;2023-06-04T09:22:59;23.70;99.90
19516;DHT22;9901;47.448;7.692;2023-06-04T09:25:26;23.70;99.90
19516;DHT22;9901;47.448;7.692;2023-06-04T09:27:57;23.80;99.90
19516;DHT22;9901;47.448;7.692;2023-06-04T09:30:30;23.90;99.90
19516;DHT22;9901;47.448;7.692;2023-06-04T09:33:06;24.20;99.90
19516;DHT22;9901;47.448;7.692;2023-06-04T09:35:32;24.40;99.90
19516;DHT22;9901;47.448;7.692;2023-06-04T09:37:58;24.50;99.90
19516;DHT22;9901;47.448;7.692;2023-06-04T09:40:34;24.80;99.90
19516;DHT22;9901;47.448;7.692;2023-06-04T09:43:00;24.90;99.90
19516;DHT22;9901;47.448;7.692;2023-06-04T09:45:44;25.00;99.90
19516;DHT22;9901;47.448;7.692;2023-06-04T09:48:19;25.30;99.90
19516;DHT22;9901;47.448;7.692;2023-06-04T09:50:44;25.40;99.90
19516;DHT22;9901;47.448;7.692;2023-06-04T09:53:20;25.60;99.90
19516;DHT22;9901;47.448;7.692;2023-06-04T09:55:58;25.80;99.90
19516;DHT22;9901;47.448;7.692;2023-06-04T09:58:28;25.90;99.90
19516;DHT22;9901;47.448;7.692;2023-06-04T10:01:01;26.10;99.90
19516;DHT22;9901;47.448;7.692;2023-06-04T10:03:34;26.20;99.90
19516;DHT22;9901;47.448;7.692;2023-06-04T10:06:03;26.40;99.90
19516;DHT22;9901;47.448;7.692;2023-06-04T10:08:30;26.60;99.90
19516;DHT22;9901;47.448;7.692;2023-06-04T10:10:58;26.80;99.90
19516;DHT22;9901;47.448;7.692;2023-06-04T10:13:30;26.80;99.90
19516;DHT22;9901;47.448;7.692;2023-06-04T10:15:58;27.00;99.90
19516;DHT22;9901;47.448;7.692;2023-06-04T10:18:30;27.30;99.90
19516;DHT22;9901;47.448;7.692;2023-06-04T10:20:56;27.30;99.90
19516;DHT22;9901;47.448;7.692;2023-06-04T10:23:25;27.40;99.90
19516;DHT22;9901;47.448;7.692;2023-06-04T10:25:51;27.60;99.90
19516;DHT22;9901;47.448;7.692;2023-06-04T10:28:22;27.80;99.90
19516;DHT22;9901;47.448;7.692;2023-06-04T10:30:50;27.90;99.90
19516;DHT22;9901;47.448;7.692;2023-06-04T10:33:20;28.10;99.90
19516;DHT22;9901;47.448;7.692;2023-06-04T10:35:50;28.20;99.90
19516;DHT22;9901;47.448;7.692;2023-06-04T10:38:17;28.40;99.90
19516;DHT22;9901;47.448;7.692;2023-06-04T10:40:44;28.60;99.90
19516;DHT22;9901;47.448;7.692;2023-06-04T10:43:12;29.00;99.90
19516;DHT22;9901;47.448;7.692;2023-06-04T10:45:39;29.30;99.90
19516;DHT22;9901;47.448;7.692;2023-06-04T10:48:06;29.70;99.90
19516;DHT22;9901;47.448;7.692;2023-06-04T10:50:34;29.70;98.90
19516;DHT22;9901;47.448;7.692;2023-06-04T10:53:01;29.70;99.20
19516;DHT22;9901;47.448;7.692;2023-06-04T10:55:31;29.80;98.50
19516;DHT22;9901;47.448;7.692;2023-06-04T10:57:58;30.00;98.70
19516;DHT22;9901;47.448;7.692;2023-06-04T11:00:37;30.30;98.30
19516;DHT22;9901;47.448;7.692;2023-06-04T11:03:05;30.50;98.10
19516;DHT22;9901;47.448;7.692;2023-06-04T11:05:39;30.50;97.30
19516;DHT22;9901;47.448;7.692;2023-06-04T11:08:05;30.60;97.10
19516;DHT22;9901;47.448;7.692;2023-06-04T11:10:50;30.50;96.10
19516;DHT22;9901;47.448;7.692;2023-06-04T11:13:25;30.60;96.00
19516;DHT22;9901;47.448;7.692;2023-06-04T11:15:51;30.60;96.10
19516;DHT22;9901;47.448;7.692;2023-06-04T11:18:21;30.70;96.00
19516;DHT22;9901;47.448;7.692;2023-06-04T11:20:48;30.80;95.20
19516;DHT22;9901;47.448;7.692;2023-06-04T11:23:15;30.90;94.50
19516;DHT22;9901;47.448;7.692;2023-06-04T11:25:42;31.00;93.90
19516;DHT22;9901;47.448;7.692;2023-06-04T11:28:15;31.20;93.70
19516;DHT22;9901;47.448;7.692;2023-06-04T11:30:41;31.20;93.80
19516;DHT22;9901;47.448;7.692;2023-06-04T11:33:07;31.30;92.80
19516;DHT22;9901;47.448;7.692;2023-06-04T11:35:40;31.30;92.50
19516;DHT22;9901;47.448;7.692;2023-06-04T11:38:06;31.20;93.40
19516;DHT22;9901;47.448;7.692;2023-06-04T11:40:32;31.30;93.60
19516;DHT22;9901;47.448;7.692;2023-06-04T11:42:58;31.50;92.60
19516;DHT22;9901;47.448;7.692;2023-06-04T11:45:24;31.70;92.30
19516;DHT22;9901;47.448;7.692;2023-06-04T11:47:55;31.60;93.50
19516;DHT22;9901;47.448;7.692;2023-06-04T11:50:27;31.90;93.30
19516;DHT22;9901;47.448;7.692;2023-06-04T11:52:53;32.00;92.10
19516;DHT22;9901;47.448;7.692;2023-06-04T11:55:19;32.10;92.00
19516;DHT22;9901;47.448;7.692;2023-06-04T11:57:49;32.10;92.00
19516;DHT22;9901;47.448;7.692;2023-06-04T12:00:16;32.30;92.00
19516;DHT22;9901;47.448;7.692;2023-06-04T12:03:08;32.40;90.80
19516;DHT22;9901;47.448;7.692;2023-06-04T12:05:34;32.60;90.80
19516;DHT22;9901;47.448;7.692;2023-06-04T12:08:10;32.80;90.60
19516;DHT22;9901;47.448;7.692;2023-06-04T12:10:40;32.90;90.20
19516;DHT22;9901;47.448;7.692;2023-06-04T12:13:06;32.70;89.60
19516;DHT22;9901;47.448;7.692;2023-06-04T12:15:31;32.60;89.40
19516;DHT22;9901;47.448;7.692;2023-06-04T12:17:57;32.70;90.20
19516;DHT22;9901;47.448;7.692;2023-06-04T12:20:37;32.70;90.70
19516;DHT22;9901;47.448;7.692;2023-06-04T12:23:04;32.90;90.00
19516;DHT22;9901;47.448;7.692;2023-06-04T12:25:31;32.80;90.50
19516;DHT22;9901;47.448;7.692;2023-06-04T12:27:57;33.00;90.00
19516;DHT22;9901;47.448;7.692;2023-06-04T12:30:23;33.00;89.00
19516;DHT22;9901;47.448;7.692;2023-06-04T12:32:49;33.10;88.40
19516;DHT22;9901;47.448;7.692;2023-06-04T12:35:14;33.20;86.80
19516;DHT22;9901;47.448;7.692;2023-06-04T12:37:41;33.40;87.60
19516;DHT22;9901;47.448;7.692;2023-06-04T12:40:07;33.40;88.60
19516;DHT22;9901;47.448;7.692;2023-06-04T12:42:34;33.50;85.60
19516;DHT22;9901;47.448;7.692;2023-06-04T12:45:00;33.30;87.60
19516;DHT22;9901;47.448;7.692;2023-06-04T12:47:25;33.30;86.80
19516;DHT22;9901;47.448;7.692;2023-06-04T12:49:51;33.20;87.40
19516;DHT22;9901;47.448;7.692;2023-06-04T12:52:17;33.10;85.20
19516;DHT22;9901;47.448;7.692;2023-06-04T12:54:43;33.10;86.40
19516;DHT22;9901;47.448;7.692;2023-06-04T12:57:09;33.40;86.00
19516;DHT22;9901;47.448;7.692;2023-06-04T12:59:35;33.50;88.10
19516;DHT22;9901;47.448;7.692;2023-06-04T13:02:00;33.70;87.10
19516;DHT22;9901;47.448;7.692;2023-06-04T13:04:28;34.00;86.90
19516;DHT22;9901;47.448;7.692;2023-06-04T13:06:54;33.80;87.50
19516;DHT22;9901;47.448;7.692;2023-06-04T13:09:24;33.80;86.50
19516;DHT22;9901;47.448;7.692;2023-06-04T13:11:50;33.90;85.90
19516;DHT22;9901;47.448;7.692;2023-06-04T13:14:16;33.70;86.70
19516;DHT22;9901;47.448;7.692;2023-06-04T13:16:42;33.60;86.70
19516;DHT22;9901;47.448;7.692;2023-06-04T13:19:08;33.80;85.70
19516;DHT22;9901;47.448;7.692;2023-06-04T13:21:34;33.70;85.70
19516;DHT22;9901;47.448;7.692;2023-06-04T13:24:00;33.80;85.50
19516;DHT22;9901;47.448;7.692;2023-06-04T13:26:26;34.10;85.70
19516;DHT22;9901;47.448;7.692;2023-06-04T13:28:51;34.20;86.20
19516;DHT22;9901;47.448;7.692;2023-06-04T13:31:20;34.00;85.90
19516;DHT22;9901;47.448;7.692;2023-06-04T13:33:48;33.90;85.90
19516;DHT22;9901;47.448;7.692;2023-06-04T13:36:14;33.90;86.00
19516;DHT22;9901;47.448;7.692;2023-06-04T13:38:39;34.00;87.10
19516;DHT22;9901;47.448;7.692;2023-06-04T13:41:08;34.10;87.00
19516;DHT22;9901;47.448;7.692;2023-06-04T13:43:36;34.10;87.50
19516;DHT22;9901;47.448;7.692;2023-06-04T13:46:05;34.30;86.60
19516;DHT22;9901;47.448;7.692;2023-06-04T13:48:31;34.40;85.30
19516;DHT22;9901;47.448;7.692;2023-06-04T13:50:56;34.40;83.30
19516;DHT22;9901;47.448;7.692;2023-06-04T13:53:22;34.30;85.50
19516;DHT22;9901;47.448;7.692;2023-06-04T13:55:48;34.10;84.40
19516;DHT22;9901;47.448;7.692;2023-06-04T13:58:13;34.40;84.20
19516;DHT22;9901;47.448;7.692;2023-06-04T14:04:02;34.00;83.80
19516;DHT22;9901;47.448;7.692;2023-06-04T14:06:35;33.70;83.40
19516;DHT22;9901;47.448;7.692;2023-06-04T14:09:01;33.10;85.20
19516;DHT22;9901;47.448;7.692;2023-06-04T14:11:28;32.30;86.10
19516;DHT22;9901;47.448;7.692;2023-06-04T14:13:55;32.40;87.00
19516;DHT22;9901;47.448;7.692;2023-06-04T14:16:21;32.70;89.50
19516;DHT22;9901;47.448;7.692;2023-06-04T14:18:47;32.70;87.40
19516;DHT22;9901;47.448;7.692;2023-06-04T14:21:12;32.40;87.10
19516;DHT22;9901;47.448;7.692;2023-06-04T14:23:38;32.30;88.60
19516;DHT22;9901;47.448;7.692;2023-06-04T14:26:03;32.00;89.10
19516;DHT22;9901;47.448;7.692;2023-06-04T14:28:29;31.70;88.60
19516;DHT22;9901;47.448;7.692;2023-06-04T14:30:57;31.30;90.00
19516;DHT22;9901;47.448;7.692;2023-06-04T14:33:24;30.80;89.40
19516;DHT22;9901;47.448;7.692;2023-06-04T14:35:49;30.30;90.40
19516;DHT22;9901;47.448;7.692;2023-06-04T14:38:16;30.10;90.80
19516;DHT22;9901;47.448;7.692;2023-06-04T14:40:42;29.80;91.40
19516;DHT22;9901;47.448;7.692;2023-06-04T14:43:10;29.50;90.60
19516;DHT22;9901;47.448;7.692;2023-06-04T14:45:36;29.50;91.10
19516;DHT22;9901;47.448;7.692;2023-06-04T14:48:06;29.60;91.70
19516;DHT22;9901;47.448;7.692;2023-06-04T14:50:32;29.70;93.80
19516;DHT22;9901;47.448;7.692;2023-06-04T14:52:58;29.80;94.20
19516;DHT22;9901;47.448;7.692;2023-06-04T14:55:29;29.90;94.30
19516;DHT22;9901;47.448;7.692;2023-06-04T14:57:54;30.00;94.00
19516;DHT22;9901;47.448;7.692;2023-06-04T15:00:20;30.50;94.20
19516;DHT22;9901;47.448;7.692;2023-06-04T15:02:46;30.80;94.30
19516;DHT22;9901;47.448;7.692;2023-06-04T15:05:11;31.10;93.90
19516;DHT22;9901;47.448;7.692;2023-06-04T15:07:37;31.20;93.80
19516;DHT22;9901;47.448;7.692;2023-06-04T15:10:04;31.50;93.60
19516;DHT22;9901;47.448;7.692;2023-06-04T15:12:31;31.80;93.00
19516;DHT22;9901;47.448;7.692;2023-06-04T15:15:05;31.70;92.20
19516;DHT22;9901;47.448;7.692;2023-06-04T15:17:31;32.00;92.50
19516;DHT22;9901;47.448;7.692;2023-06-04T15:19:57;32.40;92.10
19516;DHT22;9901;47.448;7.692;2023-06-04T15:22:25;32.50;91.90
19516;DHT22;9901;47.448;7.692;2023-06-04T15:24:52;32.40;91.50
19516;DHT22;9901;47.448;7.692;2023-06-04T15:27:18;32.20;92.10
19516;DHT22;9901;47.448;7.692;2023-06-04T15:29:44;31.60;92.30
19516;DHT22;9901;47.448;7.692;2023-06-04T15:32:11;31.20;92.90
19516;DHT22;9901;47.448;7.692;2023-06-04T15:34:36;31.00;92.60
19516;DHT22;9901;47.448;7.692;2023-06-04T15:37:02;30.70;93.00
19516;DHT22;9901;47.448;7.692;2023-06-04T15:39:30;30.50;93.60
19516;DHT22;9901;47.448;7.692;2023-06-04T15:41:57;30.30;93.40
19516;DHT22;9901;47.448;7.692;2023-06-04T15:44:23;30.20;93.10
19516;DHT22;9901;47.448;7.692;2023-06-04T15:46:49;30.00;93.30
19516;DHT22;9901;47.448;7.692;2023-06-04T15:49:15;30.10;94.10
19516;DHT22;9901;47.448;7.692;2023-06-04T15:51:42;29.90;94.70
19516;DHT22;9901;47.448;7.692;2023-06-04T15:54:08;29.60;94.10
19516;DHT22;9901;47.448;7.692;2023-06-04T15:56:34;29.30;94.80